Time;durP1;ratioP1;P1;durP2;ratioP2;P2;SDS_P1;SDS_P2;PMS_P1;PMS_P2;Temp;Humidity;BMP_temperature;BMP_pressure;BME280_temperature;BME280_humidity;BME280_pressure;Samples;Min_cycle;Max_cycle;Signal;HPM_P1;HPM_P2
2021/05/24 00:00:51;;;;;;;5.35;1.12;;;;;;;8.26;78.94;96983.25;1725651;81;21272;-82
2021/05/24 00:03:17;;;;;;;6.47;1.25;;;;;;;8.27;78.72;96980.99;1718344;81;21086;-82
2021/05/24 00:05:43;;;;;;;4.67;1.05;;;;;;;8.32;78.93;96987.03;1718981;81;21291;-82
2021/05/24 00:08:09;;;;;;;3.95;0.82;;;;;;;8.32;78.96;96987.03;1713304;81;20955;-82
2021/05/24 00:10:37;;;;;;;2.42;0.90;;;;;;;8.33;79.05;96987.36;1712615;82;20974;-82
2021/05/24 00:13:06;;;;;;;2.67;1.92;;;;;;;8.32;78.99;96995.61;1726611;81;20955;-82
2021/05/24 00:15:35;;;;;;;5.00;1.12;;;;;;;8.33;78.98;96999.01;1716438;81;21563;-82
2021/05/24 00:18:01;;;;;;;2.37;0.90;;;;;;;8.32;78.78;96990.43;1728007;82;20975;-82
2021/05/24 00:20:29;;;;;;;4.17;1.30;;;;;;;8.32;78.44;96994.31;1735554;82;21014;-81
2021/05/24 00:22:56;;;;;;;2.02;1.05;;;;;;;8.35;78.81;97000.50;1738565;81;21268;-81
2021/05/24 00:25:22;;;;;;;2.42;0.80;;;;;;;8.34;78.97;97013.13;1700184;81;21002;-81
2021/05/24 00:27:48;;;;;;;4.35;1.02;;;;;;;8.31;78.97;97000.94;1721114;81;21288;-81
2021/05/24 00:30:15;;;;;;;4.58;1.12;;;;;;;8.25;78.81;97001.05;1723840;82;20983;-81
2021/05/24 00:32:40;;;;;;;2.37;1.65;;;;;;;8.26;78.84;97001.38;1704724;81;21006;-81
2021/05/24 00:35:08;;;;;;;3.17;0.90;;;;;;;8.28;78.77;97007.69;1723350;81;20912;-81
2021/05/24 00:37:34;;;;;;;4.58;1.10;;;;;;;8.30;78.69;97001.91;1722514;81;21034;-81
2021/05/24 00:40:00;;;;;;;3.27;1.27;;;;;;;8.31;78.68;96998.35;1711894;81;20943;-81
2021/05/24 00:42:25;;;;;;;2.27;0.85;;;;;;;8.29;78.56;96991.19;1726942;82;20927;-81
2021/05/24 00:44:51;;;;;;;5.62;1.22;;;;;;;8.27;78.71;96987.46;1737989;81;20952;-81
2021/05/24 00:47:17;;;;;;;2.75;0.90;;;;;;;8.25;78.67;96986.80;1691342;82;20927;-81
2021/05/24 00:49:44;;;;;;;0.88;0.70;;;;;;;8.23;78.68;96993.92;1712808;81;20955;-81
2021/05/24 00:52:13;;;;;;;3.05;0.95;;;;;;;8.23;78.63;97002.16;1722832;81;20982;-81
2021/05/24 00:54:39;;;;;;;3.42;1.20;;;;;;;8.25;78.54;96998.94;1747045;81;21319;-80
2021/05/24 00:57:05;;;;;;;5.67;1.12;;;;;;;8.25;78.52;96990.69;1733074;80;20922;-81
2021/05/24 00:59:31;;;;;;;1.98;1.00;;;;;;;8.25;78.51;96993.28;1760064;80;20954;-81
2021/05/24 01:01:57;;;;;;;3.85;1.10;;;;;;;8.22;78.53;96995.36;1761566;81;21028;-81
2021/05/24 01:04:23;;;;;;;3.40;1.12;;;;;;;8.18;78.66;96996.64;1758511;80;21013;-81
2021/05/24 01:06:50;;;;;;;3.22;1.15;;;;;;;8.15;78.68;97000.83;1743732;80;21370;-81
2021/05/24 01:09:17;;;;;;;1.10;0.80;;;;;;;8.13;78.62;97002.25;1759938;80;21029;-81
2021/05/24 01:11:43;;;;;;;5.50;1.00;;;;;;;8.15;78.63;97003.42;1756911;80;21382;-81
2021/05/24 01:14:09;;;;;;;4.08;1.10;;;;;;;8.13;78.65;97000.50;1735957;80;20990;-81
2021/05/24 01:16:34;;;;;;;3.05;1.35;;;;;;;8.11;78.68;96998.52;1746750;80;21015;-81
2021/05/24 01:19:00;;;;;;;2.47;1.00;;;;;;;8.10;78.67;96998.67;1741763;80;20942;-81
2021/05/24 01:21:26;;;;;;;1.32;1.00;;;;;;;8.08;78.88;96991.55;1746045;80;20954;-81
2021/05/24 01:23:52;;;;;;;2.33;1.10;;;;;;;8.05;79.03;96997.84;1753246;80;21001;-81
2021/05/24 01:26:19;;;;;;;4.00;0.95;;;;;;;8.04;79.19;96997.52;1732616;81;21287;-81
2021/05/24 01:28:44;;;;;;;1.67;0.90;;;;;;;8.05;79.20;96997.03;1734532;81;20942;-81
2021/05/24 01:31:10;;;;;;;4.20;0.70;;;;;;;8.06;79.03;96995.58;1733792;81;20958;-81
2021/05/24 01:33:36;;;;;;;1.25;0.70;;;;;;;8.05;78.76;97000.91;1733031;81;20958;-80
2021/05/24 01:36:04;;;;;;;4.50;0.93;;;;;;;8.05;78.82;97013.85;1733766;80;20970;-81
2021/05/24 01:38:31;;;;;;;2.92;1.00;;;;;;;8.05;78.98;97016.44;1733210;80;21049;-81
2021/05/24 01:40:57;;;;;;;5.33;0.95;;;;;;;8.02;79.04;97024.03;1752529;80;20951;-81
2021/05/24 01:43:27;;;;;;;3.83;1.02;;;;;;;8.00;79.04;97021.27;1754229;81;21262;-81
2021/05/24 01:45:53;;;;;;;1.77;0.78;;;;;;;7.97;79.09;97021.53;1733288;80;20973;-81
2021/05/24 01:48:19;;;;;;;5.65;0.70;;;;;;;7.95;78.98;97016.52;1737000;80;20981;-81
2021/05/24 01:50:45;;;;;;;2.50;0.60;;;;;;;7.96;78.85;97021.20;1762122;81;20950;-81
2021/05/24 01:53:11;;;;;;;2.85;0.62;;;;;;;7.93;78.87;97020.22;1728562;80;21086;-81
2021/05/24 01:55:36;;;;;;;2.52;0.90;;;;;;;7.89;79.07;97017.12;1713534;81;20979;-80
2021/05/24 01:58:04;;;;;;;2.25;0.80;;;;;;;7.88;79.21;97015.50;1726180;82;21290;-81
2021/05/24 02:00:30;;;;;;;4.65;0.80;;;;;;;7.87;79.21;97019.53;1719321;82;20967;-81
2021/05/24 02:02:56;;;;;;;2.95;0.85;;;;;;;7.82;79.24;97015.63;1713007;81;21267;-81
2021/05/24 02:05:24;;;;;;;7.53;1.00;;;;;;;7.79;79.30;97008.62;1713903;81;20991;-81
2021/05/24 02:07:50;;;;;;;3.58;0.60;;;;;;;7.75;79.48;97010.69;1712309;81;21073;-81
2021/05/24 02:10:19;;;;;;;2.47;0.80;;;;;;;7.76;79.45;97006.33;1724249;82;20963;-81
2021/05/24 02:12:45;;;;;;;2.90;0.93;;;;;;;7.79;79.35;97012.02;1726695;81;20987;-81
2021/05/24 02:15:12;;;;;;;0.95;0.60;;;;;;;7.80;79.27;97018.81;1712163;81;20956;-81
2021/05/24 02:17:38;;;;;;;1.37;0.65;;;;;;;7.79;79.38;97015.08;1711957;81;21311;-81
2021/05/24 02:20:05;;;;;;;2.35;0.80;;;;;;;7.74;79.55;97018.61;1711552;81;21003;-81
2021/05/24 02:22:31;;;;;;;3.02;1.10;;;;;;;7.70;79.63;97012.92;1730954;81;21327;-81
2021/05/24 02:24:56;;;;;;;3.08;0.65;;;;;;;7.67;79.99;97012.41;1711579;81;20939;-81
2021/05/24 02:27:22;;;;;;;1.20;0.80;;;;;;;7.65;79.99;97016.44;1711020;81;20950;-81
2021/05/24 02:29:48;;;;;;;1.65;0.78;;;;;;;7.65;79.91;97013.05;1711529;81;21054;-80
2021/05/24 02:32:13;;;;;;;4.37;1.00;;;;;;;7.68;79.91;97013.55;1728962;81;21034;-80
2021/05/24 02:34:39;;;;;;;2.50;0.90;;;;;;;7.75;79.88;97019.75;1731952;81;21283;-80
2021/05/24 02:37:05;;;;;;;1.42;0.60;;;;;;;7.77;79.53;97024.29;1712194;81;21043;-80
2021/05/24 02:39:31;;;;;;;1.72;0.88;;;;;;;7.76;79.46;97026.55;1711494;82;20991;-80
2021/05/24 02:41:57;;;;;;;3.02;0.70;;;;;;;7.73;79.43;97025.55;1731732;81;20995;-81
2021/05/24 02:44:23;;;;;;;2.22;0.68;;;;;;;7.71;79.31;97022.78;1713082;81;21010;-81
2021/05/24 02:46:48;;;;;;;2.17;0.68;;;;;;;7.74;79.29;97019.42;1712276;81;20950;-81
2021/05/24 02:49:15;;;;;;;5.60;0.80;;;;;;;7.76;79.21;97017.49;1717235;81;21220;-81
2021/05/24 02:51:41;;;;;;;3.52;0.60;;;;;;;7.78;79.05;97025.91;1740905;82;20978;-81
2021/05/24 02:54:06;;;;;;;4.15;1.17;;;;;;;7.79;79.20;97020.26;1732300;80;21287;-81
2021/05/24 02:56:34;;;;;;;2.05;1.12;;;;;;;7.79;79.29;97026.24;1742233;80;21021;-81
2021/05/24 02:59:02;;;;;;;4.33;0.85;;;;;;;7.80;79.15;97030.45;1724948;80;20942;-81
2021/05/24 03:01:29;;;;;;;2.52;0.75;;;;;;;7.77;79.07;97026.06;1745445;80;21276;-81
2021/05/24 03:03:56;;;;;;;2.00;0.80;;;;;;;7.80;79.00;97025.77;1724988;80;20970;-81
2021/05/24 03:06:23;;;;;;;7.15;1.00;;;;;;;7.79;79.02;97023.66;1725063;80;21101;-81
2021/05/24 03:08:49;;;;;;;5.12;1.10;;;;;;;7.80;79.34;97023.98;1750725;80;21299;-81
2021/05/24 03:11:16;;;;;;;1.60;1.10;;;;;;;7.78;79.50;97025.91;1737171;82;20934;-81
2021/05/24 03:13:42;;;;;;;1.10;0.70;;;;;;;7.79;79.52;97022.36;1698211;82;20998;-81
2021/05/24 03:16:08;;;;;;;4.12;0.90;;;;;;;7.80;79.52;97025.28;1726454;80;20967;-81
2021/05/24 03:18:34;;;;;;;1.77;0.80;;;;;;;7.87;79.36;97030.69;1744480;82;20957;-81
2021/05/24 03:21:00;;;;;;;2.87;0.80;;;;;;;7.91;79.22;97023.44;1725035;80;21247;-80
2021/05/24 03:23:25;;;;;;;3.02;0.90;;;;;;;7.92;79.06;97029.75;1745984;82;21246;-80
2021/05/24 03:25:52;;;;;;;2.35;0.80;;;;;;;7.89;79.09;97027.47;1727035;80;21049;-81
2021/05/24 03:28:18;;;;;;;3.15;0.85;;;;;;;7.86;79.38;97022.60;1728310;80;21247;-81
2021/05/24 03:30:43;;;;;;;2.85;0.75;;;;;;;7.82;79.38;97027.27;1725645;80;21041;-81
2021/05/24 03:33:09;;;;;;;2.55;0.82;;;;;;;7.80;79.55;97026.58;1725925;80;21035;-81
2021/05/24 03:35:35;;;;;;;1.50;0.68;;;;;;;7.78;79.57;97024.62;1725567;80;21330;-81
2021/05/24 03:38:00;;;;;;;1.62;0.50;;;;;;;7.78;79.42;97028.50;1725336;80;21082;-81
2021/05/24 03:40:26;;;;;;;2.72;0.90;;;;;;;7.75;79.33;97027.51;1699494;83;21067;-81
2021/05/24 03:42:52;;;;;;;1.40;0.62;;;;;;;7.72;79.22;97020.53;1725351;80;21057;-81
2021/05/24 03:45:22;;;;;;;3.50;0.60;;;;;;;7.71;79.12;97021.49;1725656;82;21053;-81
2021/05/24 03:47:47;;;;;;;2.37;1.20;;;;;;;7.68;79.10;97020.50;1725410;80;21081;-81
2021/05/24 03:50:13;;;;;;;2.33;0.50;;;;;;;7.66;79.19;97012.89;1745936;80;20954;-81
2021/05/24 03:52:38;;;;;;;1.10;0.50;;;;;;;7.68;79.02;97014.84;1722238;82;21009;-81
2021/05/24 03:55:05;;;;;;;1.77;0.60;;;;;;;7.68;78.83;97016.14;1729251;81;21295;-81
2021/05/24 03:57:33;;;;;;;1.87;0.55;;;;;;;7.72;78.81;97011.00;1713721;81;21078;-81
2021/05/24 03:59:59;;;;;;;1.42;0.57;;;;;;;7.72;78.81;97007.12;1724983;82;20990;-81
2021/05/24 04:02:25;;;;;;;2.45;0.72;;;;;;;7.71;78.80;97004.20;1718193;81;21307;-81
2021/05/24 04:04:50;;;;;;;1.20;0.45;;;;;;;7.71;78.92;97009.86;1712342;82;20994;-81
2021/05/24 04:07:23;;;;;;;2.45;0.70;;;;;;;7.70;78.86;97021.16;1711698;81;21078;-81
2021/05/24 04:09:44;;;;;;;1.95;0.65;;;;;;;7.70;78.88;97018.58;1712666;81;21034;-81
2021/05/24 04:12:10;;;;;;;1.90;0.35;;;;;;;7.71;78.65;97023.60;1715599;82;20955;-81
2021/05/24 04:14:38;;;;;;;1.12;0.57;;;;;;;7.74;78.54;97027.66;1711773;82;20951;-82
2021/05/24 04:17:03;;;;;;;0.85;0.40;;;;;;;7.74;78.28;97030.25;1712401;81;21018;-81
2021/05/24 04:19:29;;;;;;;0.90;0.50;;;;;;;7.73;78.32;97035.09;1712661;81;20939;-81
2021/05/24 04:21:55;;;;;;;1.90;0.50;;;;;;;7.77;78.33;97041.11;1730711;81;21026;-81
2021/05/24 04:24:21;;;;;;;1.60;0.50;;;;;;;7.79;78.44;97043.06;1737878;82;20983;-81
2021/05/24 04:26:46;;;;;;;1.55;0.70;;;;;;;7.79;78.48;97048.23;1723924;81;20947;-81
2021/05/24 04:29:12;;;;;;;0.82;0.40;;;;;;;7.79;78.60;97047.42;1712690;81;20958;-81
2021/05/24 04:31:38;;;;;;;1.30;0.42;;;;;;;7.81;78.70;97054.10;1712197;81;21308;-81
2021/05/24 04:34:04;;;;;;;1.15;0.50;;;;;;;7.82;78.79;97053.63;1713080;81;20963;-81
2021/05/24 04:36:29;;;;;;;0.53;0.47;;;;;;;7.88;78.87;97056.90;1714835;81;20931;-81
2021/05/24 04:38:55;;;;;;;2.45;0.78;;;;;;;7.93;78.88;97052.08;1712216;82;21057;-81
2021/05/24 04:41:21;;;;;;;3.60;0.88;;;;;;;7.98;78.99;97055.54;1712542;82;21038;-81
2021/05/24 04:43:47;;;;;;;2.35;0.80;;;;;;;8.01;79.03;97061.70;1713457;81;20995;-81
2021/05/24 04:46:13;;;;;;;1.95;0.90;;;;;;;8.01;79.09;97070.28;1728197;81;20975;-81
2021/05/24 04:48:38;;;;;;;0.70;0.60;;;;;;;8.02;79.24;97070.61;1739913;82;20979;-81
2021/05/24 04:51:04;;;;;;;0.65;0.47;;;;;;;8.06;79.27;97071.94;1740100;81;21248;-81
2021/05/24 04:53:31;;;;;;;1.75;0.60;;;;;;;8.13;79.20;97074.73;1726380;81;20999;-81
2021/05/24 04:55:57;;;;;;;1.82;0.68;;;;;;;8.20;79.23;97072.38;1726555;80;20954;-81
2021/05/24 04:58:23;;;;;;;2.35;0.60;;;;;;;8.26;79.47;97074.34;1726514;80;21057;-81
2021/05/24 05:00:49;;;;;;;4.22;1.10;;;;;;;8.31;79.65;97074.25;1725192;80;21330;-81
2021/05/24 05:03:15;;;;;;;1.22;0.70;;;;;;;8.36;79.84;97078.52;1725148;80;20994;-81
2021/05/24 05:05:41;;;;;;;1.90;0.70;;;;;;;8.43;79.98;97071.76;1725169;80;20950;-81
2021/05/24 05:08:08;;;;;;;2.02;0.75;;;;;;;8.51;79.81;97072.31;1725844;80;20981;-81
2021/05/24 05:10:34;;;;;;;1.30;0.70;;;;;;;8.65;79.92;97061.88;1725192;80;20970;-81
2021/05/24 05:13:00;;;;;;;0.70;0.70;;;;;;;8.79;80.04;97060.51;1742220;80;20997;-81
2021/05/24 05:15:26;;;;;;;1.22;0.55;;;;;;;8.90;80.30;97066.22;1732404;80;20953;-81
2021/05/24 05:17:52;;;;;;;0.78;0.50;;;;;;;8.99;80.42;97064.49;1725255;82;20962;-81
2021/05/24 05:20:17;;;;;;;2.00;0.80;;;;;;;9.09;80.66;97067.77;1751874;80;20950;-81
2021/05/24 05:22:43;;;;;;;0.80;0.50;;;;;;;9.24;80.88;97077.88;1713094;82;21251;-81
2021/05/24 05:25:10;;;;;;;2.05;0.70;;;;;;;9.36;80.92;97070.62;1726103;80;20914;-81
2021/05/24 05:27:36;;;;;;;1.87;0.62;;;;;;;9.47;80.66;97063.87;1725275;80;21326;-81
2021/05/24 05:30:01;;;;;;;1.37;1.00;;;;;;;9.58;80.37;97064.03;1738139;80;20947;-81
2021/05/24 05:32:27;;;;;;;1.60;0.70;;;;;;;9.67;80.34;97058.39;1732450;80;21001;-81
2021/05/24 05:34:53;;;;;;;2.02;0.80;;;;;;;9.77;80.56;97063.78;1730107;80;21026;-81
2021/05/24 05:37:20;;;;;;;3.37;0.85;;;;;;;9.89;80.80;97081.13;1740716;80;21034;-81
2021/05/24 05:39:50;;;;;;;1.72;0.62;;;;;;;10.00;80.66;97080.02;1745122;82;21023;-81
2021/05/24 05:42:15;;;;;;;2.20;0.55;;;;;;;10.10;81.10;97080.20;1725087;80;20998;-81
2021/05/24 05:44:40;;;;;;;2.60;1.27;;;;;;;10.23;80.61;97071.94;1725676;80;20958;-81
2021/05/24 05:47:06;;;;;;;0.90;0.70;;;;;;;10.33;80.59;97063.99;1718653;82;21319;-81
2021/05/24 05:49:32;;;;;;;3.98;1.55;;;;;;;10.45;80.38;97072.59;1725573;82;21026;-81
2021/05/24 05:51:57;;;;;;;3.50;1.15;;;;;;;10.57;80.02;97067.84;1725622;80;21101;-81
2021/05/24 05:54:23;;;;;;;4.03;2.55;;;;;;;10.69;80.25;97074.33;1720473;80;21134;-81
2021/05/24 05:56:49;;;;;;;3.40;2.87;;;;;;;10.80;78.90;97070.59;1729273;81;21023;-81
2021/05/24 05:59:19;;;;;;;2.60;1.30;;;;;;;10.96;78.66;97072.34;1712508;81;21050;-81
2021/05/24 06:01:43;;;;;;;3.37;2.40;;;;;;;11.12;79.41;97079.59;1735274;81;20999;-81
2021/05/24 06:04:09;;;;;;;4.33;2.70;;;;;;;11.23;79.10;97068.03;1725523;81;20943;-82
2021/05/24 06:06:34;;;;;;;3.27;1.90;;;;;;;11.38;78.77;97065.50;1717994;81;20966;-82
2021/05/24 06:09:00;;;;;;;3.12;1.30;;;;;;;11.53;77.80;97055.17;1711609;81;21311;-81
2021/05/24 06:11:27;;;;;;;2.17;1.10;;;;;;;11.64;78.94;97059.52;1731200;82;20951;-81
2021/05/24 06:13:52;;;;;;;3.67;1.10;;;;;;;11.79;75.68;97071.83;1719599;82;20951;-82
2021/05/24 06:16:18;;;;;;;2.10;0.80;;;;;;;11.93;75.37;97079.72;1725544;81;21292;-82
2021/05/24 06:18:44;;;;;;;1.85;0.90;;;;;;;12.07;75.19;97074.25;1713490;82;20931;-82
2021/05/24 06:21:09;;;;;;;1.95;0.60;;;;;;;12.15;74.90;97089.00;1715214;81;20988;-82
2021/05/24 06:23:35;;;;;;;1.00;0.60;;;;;;;12.19;73.04;97084.56;1732067;81;21252;-82
2021/05/24 06:26:01;;;;;;;1.47;0.70;;;;;;;12.28;73.24;97085.32;1719611;81;20946;-82
2021/05/24 06:28:27;;;;;;;0.93;0.70;;;;;;;12.35;72.64;97092.75;1724495;81;21085;-82
2021/05/24 06:30:52;;;;;;;1.87;0.75;;;;;;;12.40;72.58;97098.27;1712672;81;21408;-81
2021/05/24 06:33:18;;;;;;;4.42;3.10;;;;;;;12.46;71.66;97095.44;1722132;81;21011;-82
2021/05/24 06:35:44;;;;;;;6.35;3.67;;;;;;;12.60;71.92;97092.06;1722591;81;21022;-82
2021/05/24 06:38:10;;;;;;;3.30;2.75;;;;;;;12.69;72.44;97100.60;1731979;81;21054;-82
2021/05/24 06:40:37;;;;;;;2.65;2.30;;;;;;;12.69;72.96;97096.23;1712802;81;21046;-82
2021/05/24 06:43:03;;;;;;;4.50;2.67;;;;;;;12.77;72.82;97081.79;1714291;81;20955;-82
2021/05/24 06:45:28;;;;;;;3.65;2.55;;;;;;;12.83;72.21;97086.28;1709519;81;21365;-82
2021/05/24 06:47:54;;;;;;;2.27;1.42;;;;;;;12.91;71.99;97082.80;1715051;81;20955;-82
2021/05/24 06:50:20;;;;;;;1.90;0.80;;;;;;;12.92;70.85;97070.88;1738863;82;20991;-82
2021/05/24 06:52:45;;;;;;;5.15;1.40;;;;;;;12.94;69.68;97081.13;1738733;82;20943;-82
2021/05/24 06:55:12;;;;;;;1.05;0.53;;;;;;;13.02;68.79;97077.64;1736460;80;21339;-82
2021/05/24 06:57:38;;;;;;;1.22;0.80;;;;;;;13.14;68.64;97081.39;1729210;80;21038;-82
2021/05/24 07:00:06;;;;;;;1.52;0.50;;;;;;;13.34;68.44;97073.84;1743847;80;21286;-82
2021/05/24 07:02:32;;;;;;;1.85;0.93;;;;;;;13.42;66.81;97069.35;1724993;80;20963;-83
2021/05/24 07:04:58;;;;;;;0.93;0.70;;;;;;;13.50;66.80;97076.25;1746141;80;20974;-83
2021/05/24 07:07:25;;;;;;;1.42;0.90;;;;;;;13.57;66.55;97081.08;1725031;80;21061;-83
2021/05/24 07:09:51;;;;;;;1.45;0.65;;;;;;;13.64;66.46;97069.39;1725424;80;21383;-83
2021/05/24 07:12:16;;;;;;;2.55;1.07;;;;;;;13.66;66.81;97077.34;1751149;80;21030;-83
2021/05/24 07:14:45;;;;;;;1.35;0.75;;;;;;;13.70;66.16;97072.59;1740279;80;21064;-83
2021/05/24 07:17:10;;;;;;;2.20;0.70;;;;;;;13.76;66.04;97070.04;1724855;82;21006;-83
2021/05/24 07:19:35;;;;;;;3.37;0.95;;;;;;;13.87;65.36;97067.95;1742085;82;21066;-83
2021/05/24 07:22:01;;;;;;;1.02;0.60;;;;;;;14.04;66.14;97068.83;1731795;82;21370;-83
2021/05/24 07:24:27;;;;;;;0.80;0.40;;;;;;;14.21;65.29;97057.63;1726331;80;21017;-83
2021/05/24 07:26:54;;;;;;;1.67;0.78;;;;;;;14.30;65.24;97057.78;1725037;82;21068;-83
2021/05/24 07:29:20;;;;;;;1.10;0.68;;;;;;;14.36;65.45;97055.74;1731035;80;21010;-83
2021/05/24 07:31:46;;;;;;;2.05;0.98;;;;;;;14.40;65.27;97050.94;1740422;82;20993;-83
2021/05/24 07:34:11;;;;;;;3.12;0.60;;;;;;;14.45;64.33;97055.12;1724937;80;21302;-83
2021/05/24 07:36:37;;;;;;;2.42;0.80;;;;;;;14.56;64.01;97056.42;1725111;80;21302;-82
2021/05/24 07:39:04;;;;;;;1.05;0.60;;;;;;;14.59;63.55;97054.23;1725678;82;21053;-83
2021/05/24 07:41:30;;;;;;;2.92;0.80;;;;;;;14.63;64.90;97061.99;1746122;80;21025;-83
2021/05/24 07:43:56;;;;;;;3.42;1.60;;;;;;;14.67;63.31;97050.17;1743296;80;21045;-83
2021/05/24 07:46:21;;;;;;;2.40;0.70;;;;;;;14.78;62.83;97050.13;1725469;82;21037;-83
2021/05/24 07:48:47;;;;;;;1.32;0.70;;;;;;;14.82;64.08;97054.00;1729814;80;21010;-83
2021/05/24 07:51:13;;;;;;;1.77;1.02;;;;;;;14.84;63.98;97048.07;1744373;80;21010;-83
2021/05/24 07:53:39;;;;;;;3.15;1.17;;;;;;;14.87;62.56;97052.11;1742997;80;21362;-83
2021/05/24 07:56:05;;;;;;;3.75;1.12;;;;;;;14.89;62.36;97052.22;1748196;80;20976;-83
2021/05/24 07:58:30;;;;;;;1.87;1.10;;;;;;;14.91;61.36;97050.72;1725824;80;20950;-83
2021/05/24 08:00:56;;;;;;;2.37;1.30;;;;;;;14.90;62.34;97047.80;1726015;82;21053;-83
2021/05/24 08:03:22;;;;;;;1.62;1.02;;;;;;;14.93;63.51;97060.48;1732278;80;21029;-83
2021/05/24 08:05:48;;;;;;;1.80;1.42;;;;;;;15.14;64.64;97063.55;1741960;80;21291;-83
2021/05/24 08:08:14;;;;;;;3.25;1.30;;;;;;;15.20;62.32;97056.21;1725723;80;21121;-83
2021/05/24 08:10:40;;;;;;;2.55;1.02;;;;;;;15.26;62.75;97054.92;1725162;82;21351;-83
2021/05/24 08:13:06;;;;;;;2.45;0.90;;;;;;;15.32;64.58;97048.12;1724921;80;21030;-83
2021/05/24 08:15:33;;;;;;;2.52;1.00;;;;;;;15.47;62.80;97051.91;1746378;82;21038;-83
2021/05/24 08:18:03;;;;;;;1.98;0.93;;;;;;;15.61;61.63;97053.07;1744632;82;21320;-83
2021/05/24 08:20:29;;;;;;;2.10;0.80;;;;;;;15.71;60.98;97053.21;1745703;80;20962;-82
2021/05/24 08:22:55;;;;;;;2.02;0.85;;;;;;;15.76;60.02;97047.67;1725626;82;21014;-83
2021/05/24 08:25:21;;;;;;;2.10;1.62;;;;;;;15.84;59.88;97042.77;1726406;80;21244;-84
2021/05/24 08:27:47;;;;;;;1.75;0.70;;;;;;;15.97;60.67;97037.56;1725537;80;20915;-83
2021/05/24 08:30:14;;;;;;;1.75;0.55;;;;;;;16.19;59.14;97028.50;1725622;80;20978;-83
2021/05/24 08:32:40;;;;;;;2.75;0.80;;;;;;;16.12;57.68;97022.96;1720398;80;21232;-83
2021/05/24 08:35:07;;;;;;;2.60;0.85;;;;;;;16.15;59.75;97022.05;1743896;82;20959;-83
2021/05/24 08:37:32;;;;;;;3.40;0.95;;;;;;;16.30;58.98;97020.55;1725555;80;20950;-83
2021/05/24 08:39:58;;;;;;;1.72;0.70;;;;;;;16.30;59.21;97013.18;1725974;80;20993;-83
2021/05/24 08:42:28;;;;;;;2.65;0.75;;;;;;;16.15;57.51;97010.25;1728339;80;20922;-83
2021/05/24 08:44:52;;;;;;;1.12;0.65;;;;;;;16.30;59.44;97004.00;1719658;82;21002;-83
2021/05/24 08:47:21;;;;;;;2.77;0.70;;;;;;;16.35;57.79;96998.95;1732896;82;21054;-83
2021/05/24 08:49:47;;;;;;;2.33;1.02;;;;;;;16.35;57.40;97008.13;1711033;82;21353;-83
2021/05/24 08:52:13;;;;;;;1.25;0.75;;;;;;;16.39;56.95;97005.39;1746596;80;20982;-83
2021/05/24 08:54:39;;;;;;;2.02;0.90;;;;;;;16.48;56.67;97001.06;1725472;80;21089;-83
2021/05/24 08:57:05;;;;;;;3.08;0.98;;;;;;;16.55;56.98;96997.61;1725867;80;21042;-83
2021/05/24 08:59:31;;;;;;;1.40;0.90;;;;;;;16.57;55.95;96999.52;1727215;80;20967;-83
2021/05/24 09:01:57;;;;;;;2.45;1.00;;;;;;;16.64;56.34;97001.64;1740185;80;20911;-83
2021/05/24 09:04:40;;;;;;;2.35;0.93;;;;;;;16.70;55.98;96992.98;1732718;80;20985;-83
2021/05/24 09:07:06;;;;;;;1.70;0.93;;;;;;;16.82;56.51;96997.09;1731574;80;20994;-83
2021/05/24 09:09:32;;;;;;;3.05;1.17;;;;;;;16.88;56.32;97006.25;1727755;80;21034;-82
2021/05/24 09:11:59;;;;;;;2.05;0.80;;;;;;;16.96;56.17;97002.11;1747015;80;21341;-82
2021/05/24 09:14:25;;;;;;;2.45;1.00;;;;;;;17.09;53.51;96984.20;1736431;80;20954;-82
2021/05/24 09:17:01;;;;;;;2.12;0.90;;;;;;;17.11;55.21;96997.92;1754312;80;20990;-83
2021/05/24 09:19:33;;;;;;;2.05;1.10;;;;;;;17.17;55.46;96999.70;1713247;83;20921;-83
2021/05/24 09:22:06;;;;;;;1.95;1.00;;;;;;;17.16;54.78;96999.91;1700686;82;21006;-82
2021/05/24 09:24:41;;;;;;;1.95;1.00;;;;;;;17.08;55.67;96988.64;1744126;81;20974;-83
2021/05/24 09:27:27;;;;;;;2.37;0.78;;;;;;;17.08;55.27;96981.25;1725067;82;20954;-83
2021/05/24 09:29:56;;;;;;;2.47;1.20;;;;;;;17.06;53.42;96984.59;1705595;80;21065;-83
2021/05/24 09:32:25;;;;;;;2.05;1.10;;;;;;;17.01;53.95;96975.23;1715892;82;20986;-83
2021/05/24 09:34:54;;;;;;;1.37;0.93;;;;;;;16.91;54.68;96980.09;1752167;82;21002;-83
2021/05/24 09:37:40;;;;;;;2.15;0.93;;;;;;;16.85;55.13;96986.98;1740639;80;20966;-83
2021/05/24 09:40:22;;;;;;;2.20;0.98;;;;;;;16.82;54.93;96980.84;1726069;80;21034;-82
2021/05/24 09:42:48;;;;;;;2.47;1.10;;;;;;;16.88;56.11;96977.38;1725177;82;20987;-83
2021/05/24 09:45:18;;;;;;;3.00;1.20;;;;;;;16.88;55.68;96963.45;1725752;80;21243;-83
2021/05/24 09:47:44;;;;;;;2.42;1.37;;;;;;;16.98;54.68;96959.89;1727195;80;21278;-83
2021/05/24 09:50:18;;;;;;;1.17;0.90;;;;;;;17.08;55.62;96963.70;1746200;80;21264;-83
2021/05/24 09:52:44;;;;;;;2.35;1.00;;;;;;;17.20;55.54;96961.72;1735091;82;20962;-83
2021/05/24 09:55:24;;;;;;;2.70;1.02;;;;;;;17.26;55.65;96968.27;1727047;81;21029;-83
2021/05/24 09:58:01;;;;;;;1.25;0.82;;;;;;;17.34;53.85;96964.07;1712170;81;21058;-83
2021/05/24 10:03:12;;;;;;;3.05;1.20;;;;;;;17.68;54.80;96969.97;1669713;82;21013;-83
2021/05/24 10:05:43;;;;;;;3.00;0.82;;;;;;;17.84;54.86;96966.03;1729910;81;21010;-83
2021/05/24 10:08:09;;;;;;;2.47;1.00;;;;;;;18.10;55.19;96958.46;1732176;81;20970;-83
2021/05/24 10:10:35;;;;;;;2.75;1.02;;;;;;;18.32;53.52;96952.30;1728309;81;21082;-83
2021/05/24 10:13:01;;;;;;;2.62;1.20;;;;;;;18.29;53.93;96952.22;1726979;81;20947;-83
2021/05/24 10:15:27;;;;;;;2.42;1.00;;;;;;;18.30;53.25;96948.57;1719092;81;20982;-83
2021/05/24 10:18:00;;;;;;;3.17;1.52;;;;;;;18.33;51.94;96944.19;1723099;82;20981;-83
2021/05/24 10:20:20;;;;;;;2.47;1.52;;;;;;;18.35;53.78;96947.40;1712806;81;20970;-83
2021/05/24 10:22:46;;;;;;;1.30;1.02;;;;;;;18.43;52.46;96937.92;1723066;81;20916;-83
2021/05/24 10:25:12;;;;;;;1.40;0.98;;;;;;;18.50;52.09;96937.84;1716251;82;20931;-83
2021/05/24 10:27:38;;;;;;;1.80;0.85;;;;;;;18.64;51.07;96934.09;1717464;81;20986;-83
2021/05/24 10:30:06;;;;;;;2.77;0.93;;;;;;;18.71;52.10;96919.53;1722754;81;21062;-83
2021/05/24 10:32:33;;;;;;;1.55;0.95;;;;;;;18.72;52.24;96918.53;1720492;82;21258;-83
2021/05/24 10:34:59;;;;;;;2.05;1.17;;;;;;;18.71;50.63;96926.94;1672763;82;20971;-83
2021/05/24 10:37:25;;;;;;;2.12;1.20;;;;;;;18.76;51.21;96927.59;1740106;81;21307;-83
2021/05/24 10:40:01;;;;;;;1.87;0.93;;;;;;;18.81;50.41;96921.95;1691210;82;21030;-83
2021/05/24 10:42:44;;;;;;;1.55;1.02;;;;;;;18.85;50.06;96933.64;1723016;82;21276;-83
2021/05/24 10:45:20;;;;;;;1.65;0.88;;;;;;;18.86;49.68;96934.45;1736295;81;21067;-83
2021/05/24 10:47:58;;;;;;;2.58;1.00;;;;;;;18.98;48.92;96930.05;1711389;82;21318;-83
2021/05/24 10:50:25;;;;;;;1.70;1.05;;;;;;;19.14;48.81;96923.38;1729591;81;21049;-83
2021/05/24 10:53:09;;;;;;;2.00;1.10;;;;;;;19.09;48.35;96924.05;1664669;84;21310;-83
2021/05/24 10:55:47;;;;;;;2.75;1.12;;;;;;;19.12;48.14;96917.53;1741848;82;21311;-83
2021/05/24 10:58:15;;;;;;;1.32;0.82;;;;;;;19.10;49.73;96923.02;1725125;82;20974;-83
2021/05/24 11:01:01;;;;;;;1.62;0.93;;;;;;;19.14;49.11;96921.55;1725088;80;20942;-83
2021/05/24 11:03:27;;;;;;;1.67;1.00;;;;;;;19.21;49.79;96912.77;1725535;82;20926;-83
2021/05/24 11:06:15;;;;;;;1.75;1.00;;;;;;;19.27;48.05;96912.67;1745279;80;21271;-83
2021/05/24 11:09:03;;;;;;;2.55;1.20;;;;;;;19.38;48.07;96904.53;1725014;80;20962;-83
2021/05/24 11:11:31;;;;;;;2.87;1.10;;;;;;;19.33;47.04;96897.27;1724592;82;20943;-83
2021/05/24 11:13:59;;;;;;;1.82;1.12;;;;;;;19.41;47.10;96898.80;1731167;80;20982;-83
2021/05/24 11:16:25;;;;;;;1.22;0.98;;;;;;;19.38;46.51;96884.77;1754177;80;21023;-83
2021/05/24 11:18:51;;;;;;;2.27;1.10;;;;;;;19.46;46.57;96885.23;1729285;82;21004;-83
2021/05/24 11:21:24;;;;;;;1.42;1.00;;;;;;;19.54;47.07;96877.56;1699893;82;21067;-83
2021/05/24 11:26:37;;;;;;;2.73;1.00;;;;;;;19.71;47.13;96873.23;1728579;80;20942;-83
2021/05/24 11:29:11;;;;;;;2.00;1.17;;;;;;;19.80;46.52;96860.50;1728660;80;21049;-83
2021/05/24 11:31:45;;;;;;;1.98;1.17;;;;;;;19.82;45.96;96862.91;1733244;80;20968;-83
2021/05/24 11:34:31;;;;;;;1.55;0.70;;;;;;;19.92;44.89;96866.59;1751338;82;20969;-83
2021/05/24 11:37:01;;;;;;;2.02;1.02;;;;;;;19.93;42.63;96863.44;1727222;80;20966;-83
2021/05/24 11:39:54;;;;;;;1.62;0.90;;;;;;;19.93;44.42;96856.33;1724292;80;21030;-83
2021/05/24 11:42:27;;;;;;;2.55;1.00;;;;;;;20.04;43.99;96862.13;1734799;80;21255;-83